sensor_id;sensor_type;location;lat;lon;timestamp;pressure;altitude;pressure_sealevel;temperature;humidity
30682;BME280;17439;48.092;11.842;2023-07-09T00:01:18;95830.03;;;23.34;44.18
30682;BME280;17439;48.092;11.842;2023-07-09T00:03:46;95822.91;;;23.33;43.53
30682;BME280;17439;48.092;11.842;2023-07-09T00:06:13;95830.03;;;23.31;43.59
30682;BME280;17439;48.092;11.842;2023-07-09T00:08:44;95824.06;;;23.29;44.10
30682;BME280;17439;48.092;11.842;2023-07-09T00:11:11;95829.97;;;23.27;43.75
30682;BME280;17439;48.092;11.842;2023-07-09T00:13:38;95826.03;;;23.25;43.45
30682;BME280;17439;48.092;11.842;2023-07-09T00:16:14;95830.34;;;23.22;45.08
30682;BME280;17439;48.092;11.842;2023-07-09T00:18:42;95828.34;;;23.19;43.70
30682;BME280;17439;48.092;11.842;2023-07-09T00:21:09;95823.56;;;23.16;43.82
30682;BME280;17439;48.092;11.842;2023-07-09T00:23:36;95821.19;;;23.14;44.13
30682;BME280;17439;48.092;11.842;2023-07-09T00:26:07;95826.69;;;23.11;44.33
30682;BME280;17439;48.092;11.842;2023-07-09T00:28:34;95830.66;;;23.10;44.03
30682;BME280;17439;48.092;11.842;2023-07-09T00:31:01;95823.09;;;23.07;44.31
30682;BME280;17439;48.092;11.842;2023-07-09T00:33:28;95837.31;;;23.05;44.30
30682;BME280;17439;48.092;11.842;2023-07-09T00:35:54;95830.56;;;23.03;44.39
30682;BME280;17439;48.092;11.842;2023-07-09T00:38:22;95838.44;;;23.00;44.72
30682;BME280;17439;48.092;11.842;2023-07-09T00:41:06;95836.84;;;22.96;46.34
30682;BME280;17439;48.092;11.842;2023-07-09T00:43:38;95835.22;;;22.95;44.93
30682;BME280;17439;48.092;11.842;2023-07-09T00:49:06;95850.56;;;22.89;45.25
30682;BME280;17439;48.092;11.842;2023-07-09T00:51:38;95843.84;;;22.86;45.98
30682;BME280;17439;48.092;11.842;2023-07-09T00:54:22;95846.56;;;22.82;46.23
30682;BME280;17439;48.092;11.842;2023-07-09T00:56:52;95848.94;;;22.80;45.83
30682;BME280;17439;48.092;11.842;2023-07-09T00:59:22;95847.72;;;22.78;45.48
30682;BME280;17439;48.092;11.842;2023-07-09T01:01:51;95853.63;;;22.76;45.41
30682;BME280;17439;48.092;11.842;2023-07-09T01:04:20;95855.19;;;22.74;45.32
30682;BME280;17439;48.092;11.842;2023-07-09T01:06:50;95853.19;;;22.71;46.19
30682;BME280;17439;48.092;11.842;2023-07-09T01:09:18;95850.00;;;22.69;45.56
30682;BME280;17439;48.092;11.842;2023-07-09T01:11:45;95850.78;;;22.66;45.55
30682;BME280;17439;48.092;11.842;2023-07-09T01:14:14;95856.69;;;22.64;46.24
30682;BME280;17439;48.092;11.842;2023-07-09T01:17:02;95853.06;;;22.60;47.13
30682;BME280;17439;48.092;11.842;2023-07-09T01:19:37;95854.63;;;22.57;46.88
30682;BME280;17439;48.092;11.842;2023-07-09T01:22:04;95858.56;;;22.56;45.75
30682;BME280;17439;48.092;11.842;2023-07-09T01:27:32;95862.06;;;22.50;46.04
30682;BME280;17439;48.092;11.842;2023-07-09T01:30:02;95867.13;;;22.48;46.51
30682;BME280;17439;48.092;11.842;2023-07-09T01:32:29;95863.19;;;22.45;46.14
30682;BME280;17439;48.092;11.842;2023-07-09T01:34:59;95863.94;;;22.42;46.65
30682;BME280;17439;48.092;11.842;2023-07-09T01:37:27;95865.47;;;22.39;46.54
30682;BME280;17439;48.092;11.842;2023-07-09T01:39:54;95860.72;;;22.36;46.44
30682;BME280;17439;48.092;11.842;2023-07-09T01:42:23;95864.22;;;22.33;46.89
30682;BME280;17439;48.092;11.842;2023-07-09T01:44:52;95863.81;;;22.31;46.70
30682;BME280;17439;48.092;11.842;2023-07-09T01:47:20;95868.56;;;22.31;46.41
30682;BME280;17439;48.092;11.842;2023-07-09T01:49:47;95866.13;;;22.29;46.67
30682;BME280;17439;48.092;11.842;2023-07-09T01:52:15;95868.47;;;22.27;46.84
30682;BME280;17439;48.092;11.842;2023-07-09T01:54:42;95868.84;;;22.25;46.68
30682;BME280;17439;48.092;11.842;2023-07-09T01:57:35;95869.19;;;22.20;48.15
30682;BME280;17439;48.092;11.842;2023-07-09T02:00:14;95868.38;;;22.20;48.38
30682;BME280;17439;48.092;11.842;2023-07-09T02:02:44;95869.56;;;22.19;46.82
30682;BME280;17439;48.092;11.842;2023-07-09T02:05:14;95874.66;;;22.17;47.35
30682;BME280;17439;48.092;11.842;2023-07-09T02:07:41;95876.19;;;22.14;46.91
30682;BME280;17439;48.092;11.842;2023-07-09T02:10:08;95876.56;;;22.13;47.27
30682;BME280;17439;48.092;11.842;2023-07-09T02:12:35;95875.38;;;22.10;47.29
30682;BME280;17439;48.092;11.842;2023-07-09T02:15:02;95871.38;;;22.07;47.32
30682;BME280;17439;48.092;11.842;2023-07-09T02:17:29;95884.03;;;22.08;47.39
30682;BME280;17439;48.092;11.842;2023-07-09T02:19:55;95874.91;;;22.04;47.68
30682;BME280;17439;48.092;11.842;2023-07-09T02:22:23;95877.25;;;22.02;47.32
30682;BME280;17439;48.092;11.842;2023-07-09T02:24:50;95876.84;;;22.00;47.67
30682;BME280;17439;48.092;11.842;2023-07-09T02:27:17;95882.72;;;21.99;47.62
30682;BME280;17439;48.092;11.842;2023-07-09T02:29:44;95878.34;;;21.94;47.76
30682;BME280;17439;48.092;11.842;2023-07-09T02:32:17;95880.28;;;21.93;49.15
30682;BME280;17439;48.092;11.842;2023-07-09T02:34:45;95892.50;;;21.92;47.79
30682;BME280;17439;48.092;11.842;2023-07-09T02:37:12;95883.81;;;21.90;47.82
30682;BME280;17439;48.092;11.842;2023-07-09T02:39:41;95888.09;;;21.88;48.04
30682;BME280;17439;48.092;11.842;2023-07-09T02:42:11;95891.59;;;21.85;49.05
30682;BME280;17439;48.092;11.842;2023-07-09T02:44:40;95888.44;;;21.83;48.27
30682;BME280;17439;48.092;11.842;2023-07-09T02:47:07;95891.56;;;21.81;48.36
30682;BME280;17439;48.092;11.842;2023-07-09T02:49:35;95891.50;;;21.78;48.00
30682;BME280;17439;48.092;11.842;2023-07-09T02:52:02;95893.84;;;21.76;48.00
30682;BME280;17439;48.092;11.842;2023-07-09T02:54:29;95892.22;;;21.74;48.22
30682;BME280;17439;48.092;11.842;2023-07-09T02:56:55;95896.19;;;21.73;48.64
30682;BME280;17439;48.092;11.842;2023-07-09T02:59:22;95895.75;;;21.71;48.72
30682;BME280;17439;48.092;11.842;2023-07-09T03:01:49;95896.50;;;21.68;48.66
30682;BME280;17439;48.092;11.842;2023-07-09T03:04:16;95891.38;;;21.67;48.73
30682;BME280;17439;48.092;11.842;2023-07-09T03:06:43;95897.25;;;21.65;48.83
30682;BME280;17439;48.092;11.842;2023-07-09T03:09:10;95897.63;;;21.64;48.77
30682;BME280;17439;48.092;11.842;2023-07-09T03:11:36;95895.59;;;21.61;48.78
30682;BME280;17439;48.092;11.842;2023-07-09T03:14:03;95892.84;;;21.61;48.89
30682;BME280;17439;48.092;11.842;2023-07-09T03:16:32;95891.63;;;21.58;49.09
30682;BME280;17439;48.092;11.842;2023-07-09T03:19:00;95893.19;;;21.55;48.71
30682;BME280;17439;48.092;11.842;2023-07-09T03:21:27;95898.25;;;21.53;49.08
30682;BME280;17439;48.092;11.842;2023-07-09T03:23:55;95893.09;;;21.52;48.92
30682;BME280;17439;48.092;11.842;2023-07-09T03:26:22;95902.13;;;21.49;48.83
30682;BME280;17439;48.092;11.842;2023-07-09T03:28:49;95889.47;;;21.48;49.35
30682;BME280;17439;48.092;11.842;2023-07-09T03:31:16;95896.94;;;21.47;49.35
30682;BME280;17439;48.092;11.842;2023-07-09T03:33:42;95897.31;;;21.46;49.23
30682;BME280;17439;48.092;11.842;2023-07-09T03:36:09;95905.16;;;21.44;49.43
30682;BME280;17439;48.092;11.842;2023-07-09T03:38:36;95916.19;;;21.44;49.26
30682;BME280;17439;48.092;11.842;2023-07-09T03:41:02;95910.25;;;21.42;49.34
30682;BME280;17439;48.092;11.842;2023-07-09T03:43:29;95910.25;;;21.42;49.45
30682;BME280;17439;48.092;11.842;2023-07-09T03:45:56;95908.28;;;21.42;49.65
30682;BME280;17439;48.092;11.842;2023-07-09T03:48:23;95907.50;;;21.42;49.89
30682;BME280;17439;48.092;11.842;2023-07-09T03:50:50;95914.97;;;21.41;49.80
30682;BME280;17439;48.092;11.842;2023-07-09T03:53:17;95912.66;;;21.43;49.84
30682;BME280;17439;48.092;11.842;2023-07-09T03:55:51;95911.84;;;21.43;51.00
30682;BME280;17439;48.092;11.842;2023-07-09T03:58:18;95912.28;;;21.45;49.78
30682;BME280;17439;48.092;11.842;2023-07-09T04:00:45;95913.84;;;21.46;49.67
30682;BME280;17439;48.092;11.842;2023-07-09T04:03:12;95919.00;;;21.47;49.95
30682;BME280;17439;48.092;11.842;2023-07-09T04:05:38;95915.13;;;21.48;50.22
30682;BME280;17439;48.092;11.842;2023-07-09T04:08:05;95921.88;;;21.51;50.12
30682;BME280;17439;48.092;11.842;2023-07-09T04:10:32;95916.75;;;21.53;49.77
30682;BME280;17439;48.092;11.842;2023-07-09T04:12:59;95913.63;;;21.54;49.99
30682;BME280;17439;48.092;11.842;2023-07-09T04:15:26;95915.66;;;21.58;50.02
30682;BME280;17439;48.092;11.842;2023-07-09T04:17:53;95915.28;;;21.59;50.16
30682;BME280;17439;48.092;11.842;2023-07-09T04:20:20;95914.97;;;21.64;50.28
30682;BME280;17439;48.092;11.842;2023-07-09T04:22:47;95922.13;;;21.69;50.05
30682;BME280;17439;48.092;11.842;2023-07-09T04:25:13;95918.25;;;21.73;49.99
30682;BME280;17439;48.092;11.842;2023-07-09T04:27:40;95929.75;;;21.79;50.45
30682;BME280;17439;48.092;11.842;2023-07-09T04:30:13;95925.09;;;21.83;51.19
30682;BME280;17439;48.092;11.842;2023-07-09T04:32:42;95928.75;;;21.91;51.04
30682;BME280;17439;48.092;11.842;2023-07-09T04:35:11;95933.59;;;22.01;50.96
30682;BME280;17439;48.092;11.842;2023-07-09T04:37:39;95933.75;;;22.12;51.02
30682;BME280;17439;48.092;11.842;2023-07-09T04:40:06;95933.75;;;22.12;49.49
30682;BME280;17439;48.092;11.842;2023-07-09T04:42:33;95932.47;;;22.33;50.88
30682;BME280;17439;48.092;11.842;2023-07-09T04:45:00;95933.88;;;22.50;50.60
30682;BME280;17439;48.092;11.842;2023-07-09T04:47:27;95940.34;;;22.64;51.09
30682;BME280;17439;48.092;11.842;2023-07-09T04:49:54;95939.72;;;22.78;50.54
30682;BME280;17439;48.092;11.842;2023-07-09T04:52:20;95934.34;;;22.93;50.01
30682;BME280;17439;48.092;11.842;2023-07-09T04:54:47;95932.88;;;23.06;49.55
30682;BME280;17439;48.092;11.842;2023-07-09T04:57:13;95930.63;;;23.15;49.09
30682;BME280;17439;48.092;11.842;2023-07-09T04:59:40;95933.88;;;23.25;48.86
30682;BME280;17439;48.092;11.842;2023-07-09T05:02:07;95931.91;;;23.29;48.82
30682;BME280;17439;48.092;11.842;2023-07-09T05:04:33;95924.47;;;23.33;48.49
30682;BME280;17439;48.092;11.842;2023-07-09T05:07:00;95936.75;;;23.35;48.38
30682;BME280;17439;48.092;11.842;2023-07-09T05:09:27;95931.22;;;23.35;48.62
30682;BME280;17439;48.092;11.842;2023-07-09T05:11:53;95928.84;;;23.38;48.37
30682;BME280;17439;48.092;11.842;2023-07-09T05:14:20;95930.44;;;23.39;48.33
30682;BME280;17439;48.092;11.842;2023-07-09T05:16:47;95933.63;;;23.41;48.71
30682;BME280;17439;48.092;11.842;2023-07-09T05:19:13;95930.47;;;23.42;48.47
30682;BME280;17439;48.092;11.842;2023-07-09T05:21:40;95940.75;;;23.45;48.78
30682;BME280;17439;48.092;11.842;2023-07-09T05:24:07;95943.56;;;23.49;49.07
30682;BME280;17439;48.092;11.842;2023-07-09T05:26:34;95940.81;;;23.52;49.14
30682;BME280;17439;48.092;11.842;2023-07-09T05:29:04;95944.03;;;23.58;49.32
30682;BME280;17439;48.092;11.842;2023-07-09T05:31:32;95943.28;;;23.65;49.09
30682;BME280;17439;48.092;11.842;2023-07-09T05:34:00;95944.50;;;23.71;49.26
30682;BME280;17439;48.092;11.842;2023-07-09T05:36:27;95943.00;;;23.81;49.40
30682;BME280;17439;48.092;11.842;2023-07-09T05:38:55;95946.63;;;23.88;49.05
30682;BME280;17439;48.092;11.842;2023-07-09T05:41:22;95945.50;;;23.97;49.04
30682;BME280;17439;48.092;11.842;2023-07-09T05:43:50;95948.72;;;24.06;49.29
30682;BME280;17439;48.092;11.842;2023-07-09T05:46:17;95949.09;;;24.04;48.22
30682;BME280;17439;48.092;11.842;2023-07-09T05:48:44;95955.56;;;24.23;48.98
30682;BME280;17439;48.092;11.842;2023-07-09T05:51:11;95950.47;;;24.36;48.66
30682;BME280;17439;48.092;11.842;2023-07-09T05:53:37;95956.84;;;24.47;48.50
30682;BME280;17439;48.092;11.842;2023-07-09T05:56:04;95950.19;;;24.59;48.20
30682;BME280;17439;48.092;11.842;2023-07-09T05:58:31;95957.38;;;24.71;48.00
30682;BME280;17439;48.092;11.842;2023-07-09T06:00:58;95958.19;;;24.82;47.50
30682;BME280;17439;48.092;11.842;2023-07-09T06:03:26;95966.16;;;24.94;47.56
30682;BME280;17439;48.092;11.842;2023-07-09T06:05:53;95958.66;;;25.06;47.31
30682;BME280;17439;48.092;11.842;2023-07-09T06:08:20;95960.25;;;25.17;46.61
30682;BME280;17439;48.092;11.842;2023-07-09T06:13:18;95957.94;;;25.38;46.30
30682;BME280;17439;48.092;11.842;2023-07-09T06:15:45;95955.94;;;25.49;46.04
30682;BME280;17439;48.092;11.842;2023-07-09T06:18:12;95957.91;;;25.59;45.80
30682;BME280;17439;48.092;11.842;2023-07-09T06:20:39;95959.91;;;25.69;45.75
30682;BME280;17439;48.092;11.842;2023-07-09T06:23:05;95948.78;;;25.77;45.64
30682;BME280;17439;48.092;11.842;2023-07-09T06:25:32;95963.84;;;25.86;45.57
30682;BME280;17439;48.092;11.842;2023-07-09T06:27:59;95963.47;;;25.95;45.01
30682;BME280;17439;48.092;11.842;2023-07-09T06:30:26;95967.84;;;26.03;45.11
30682;BME280;17439;48.092;11.842;2023-07-09T06:32:52;95957.09;;;26.13;44.53
30682;BME280;17439;48.092;11.842;2023-07-09T06:35:19;95961.44;;;26.21;44.61
30682;BME280;17439;48.092;11.842;2023-07-09T06:37:46;95955.47;;;26.30;44.36
30682;BME280;17439;48.092;11.842;2023-07-09T06:40:12;95956.63;;;26.39;44.30
30682;BME280;17439;48.092;11.842;2023-07-09T06:42:39;95956.56;;;26.50;43.83
30682;BME280;17439;48.092;11.842;2023-07-09T06:45:19;95965.28;;;26.59;43.99
30682;BME280;17439;48.092;11.842;2023-07-09T06:47:45;95966.06;;;26.71;43.08
30682;BME280;17439;48.092;11.842;2023-07-09T06:50:12;95964.44;;;26.81;43.27
30682;BME280;17439;48.092;11.842;2023-07-09T06:52:39;95966.38;;;26.91;43.10
30682;BME280;17439;48.092;11.842;2023-07-09T06:55:06;95962.72;;;27.01;42.94
30682;BME280;17439;48.092;11.842;2023-07-09T06:57:33;95966.66;;;27.07;42.85
30682;BME280;17439;48.092;11.842;2023-07-09T07:00:00;95957.47;;;27.18;42.21
30682;BME280;17439;48.092;11.842;2023-07-09T07:02:26;95960.19;;;27.25;42.12
30682;BME280;17439;48.092;11.842;2023-07-09T07:04:53;95952.22;;;27.34;41.90
30682;BME280;17439;48.092;11.842;2023-07-09T07:07:20;95959.31;;;27.42;41.29
30682;BME280;17439;48.092;11.842;2023-07-09T07:09:47;95953.28;;;27.51;41.26
30682;BME280;17439;48.092;11.842;2023-07-09T07:12:23;95950.03;;;27.60;39.82
30682;BME280;17439;48.092;11.842;2023-07-09T07:14:51;95955.91;;;27.69;40.76
30682;BME280;17439;48.092;11.842;2023-07-09T07:17:18;95948.31;;;27.77;40.51
30682;BME280;17439;48.092;11.842;2023-07-09T07:19:44;95954.97;;;27.86;40.47
30682;BME280;17439;48.092;11.842;2023-07-09T07:22:11;95951.75;;;27.95;40.23
30682;BME280;17439;48.092;11.842;2023-07-09T07:24:38;95954.03;;;28.04;39.56
30682;BME280;17439;48.092;11.842;2023-07-09T07:27:05;95944.78;;;28.14;39.23
30682;BME280;17439;48.092;11.842;2023-07-09T07:29:32;95946.28;;;28.22;39.55
30682;BME280;17439;48.092;11.842;2023-07-09T07:31:58;95945.00;;;28.31;39.29
30682;BME280;17439;48.092;11.842;2023-07-09T07:34:25;95947.69;;;28.38;38.74
30682;BME280;17439;48.092;11.842;2023-07-09T07:36:52;95948.81;;;28.48;37.97
30682;BME280;17439;48.092;11.842;2023-07-09T07:39:19;95940.34;;;28.55;38.14
30682;BME280;17439;48.092;11.842;2023-07-09T07:41:46;95939.91;;;28.60;37.65
30682;BME280;17439;48.092;11.842;2023-07-09T07:44:12;95940.25;;;28.66;37.42
30682;BME280;17439;48.092;11.842;2023-07-09T07:46:39;95936.97;;;28.71;37.09
30682;BME280;17439;48.092;11.842;2023-07-09T07:49:06;95938.88;;;28.77;36.61
30682;BME280;17439;48.092;11.842;2023-07-09T07:51:33;95940.81;;;28.84;36.62
30682;BME280;17439;48.092;11.842;2023-07-09T07:53:59;95933.09;;;28.92;35.88
30682;BME280;17439;48.092;11.842;2023-07-09T07:56:26;95931.44;;;28.98;35.21
30682;BME280;17439;48.092;11.842;2023-07-09T07:58:53;95934.97;;;29.02;35.02
30682;BME280;17439;48.092;11.842;2023-07-09T08:01:19;95928.84;;;29.11;33.80
30682;BME280;17439;48.092;11.842;2023-07-09T08:03:46;95924.00;;;29.19;33.42
30682;BME280;17439;48.092;11.842;2023-07-09T08:06:13;95924.31;;;29.24;33.55
30682;BME280;17439;48.092;11.842;2023-07-09T08:08:40;95921.09;;;29.26;34.06
30682;BME280;17439;48.092;11.842;2023-07-09T08:11:07;95917.81;;;29.31;33.93
30682;BME280;17439;48.092;11.842;2023-07-09T08:13:35;95923.72;;;29.37;33.51
30682;BME280;17439;48.092;11.842;2023-07-09T08:16:02;95922.00;;;29.43;33.60
30682;BME280;17439;48.092;11.842;2023-07-09T08:18:29;95917.28;;;29.40;33.96
30682;BME280;17439;48.092;11.842;2023-07-09T08:20:58;95925.72;;;29.60;32.24
30682;BME280;17439;48.092;11.842;2023-07-09T08:23:25;95921.66;;;29.64;33.11
30682;BME280;17439;48.092;11.842;2023-07-09T08:26:00;95917.69;;;29.65;33.35
30682;BME280;17439;48.092;11.842;2023-07-09T08:28:28;95922.78;;;29.71;33.53
30682;BME280;17439;48.092;11.842;2023-07-09T08:30:56;95920.25;;;29.76;33.37
30682;BME280;17439;48.092;11.842;2023-07-09T08:33:23;95924.59;;;29.81;33.35
30682;BME280;17439;48.092;11.842;2023-07-09T08:35:51;95922.53;;;29.85;32.91
30682;BME280;17439;48.092;11.842;2023-07-09T08:38:19;95921.28;;;29.90;33.00
30682;BME280;17439;48.092;11.842;2023-07-09T08:43:48;95915.00;;;30.06;31.65
30682;BME280;17439;48.092;11.842;2023-07-09T08:49:03;95917.16;;;30.18;32.61
30682;BME280;17439;48.092;11.842;2023-07-09T08:51:40;95917.78;;;30.26;32.24
30682;BME280;17439;48.092;11.842;2023-07-09T08:54:29;95918.81;;;30.35;31.99
30682;BME280;17439;48.092;11.842;2023-07-09T08:57:02;95908.84;;;30.34;30.78
30682;BME280;17439;48.092;11.842;2023-07-09T08:59:37;95913.97;;;30.39;31.71
30682;BME280;17439;48.092;11.842;2023-07-09T09:02:16;95906.28;;;30.44;31.86
30682;BME280;17439;48.092;11.842;2023-07-09T09:04:46;95911.25;;;30.56;31.50
30682;BME280;17439;48.092;11.842;2023-07-09T09:07:31;95903.91;;;30.62;31.40
30682;BME280;17439;48.092;11.842;2023-07-09T09:10:02;95910.13;;;30.70;31.64
30682;BME280;17439;48.092;11.842;2023-07-09T09:12:36;95909.13;;;30.80;31.46
30682;BME280;17439;48.092;11.842;2023-07-09T09:15:14;95910.19;;;30.86;31.11
30682;BME280;17439;48.092;11.842;2023-07-09T09:17:42;95910.47;;;30.92;31.45
30682;BME280;17439;48.092;11.842;2023-07-09T09:20:27;95909.25;;;30.93;31.06
30682;BME280;17439;48.092;11.842;2023-07-09T09:23:01;95913.91;;;31.00;30.44
30682;BME280;17439;48.092;11.842;2023-07-09T09:25:40;95915.31;;;31.08;30.38
30682;BME280;17439;48.092;11.842;2023-07-09T09:28:08;95922.78;;;31.15;31.06
30682;BME280;17439;48.092;11.842;2023-07-09T09:30:35;95912.91;;;31.26;30.76
30682;BME280;17439;48.092;11.842;2023-07-09T09:33:07;95910.97;;;31.40;30.08
30682;BME280;17439;48.092;11.842;2023-07-09T09:35:40;95916.78;;;31.49;29.97
30682;BME280;17439;48.092;11.842;2023-07-09T09:38:18;95909.16;;;31.50;29.34
30682;BME280;17439;48.092;11.842;2023-07-09T09:40:46;95903.84;;;31.55;30.21
30682;BME280;17439;48.092;11.842;2023-07-09T09:43:15;95910.66;;;31.54;30.96
30682;BME280;17439;48.092;11.842;2023-07-09T09:45:43;95912.41;;;31.81;28.64
30682;BME280;17439;48.092;11.842;2023-07-09T09:50:44;95906.41;;;31.95;28.46
30682;BME280;17439;48.092;11.842;2023-07-09T09:53:19;95910.38;;;31.98;27.91
30682;BME280;17439;48.092;11.842;2023-07-09T09:55:47;95901.16;;;31.97;28.01
30682;BME280;17439;48.092;11.842;2023-07-09T09:58:16;95903.34;;;32.06;28.74
30682;BME280;17439;48.092;11.842;2023-07-09T10:00:52;95900.34;;;32.13;27.97
30682;BME280;17439;48.092;11.842;2023-07-09T10:03:19;95905.34;;;32.22;28.86
30682;BME280;17439;48.092;11.842;2023-07-09T10:05:58;95898.72;;;32.29;27.82
30682;BME280;17439;48.092;11.842;2023-07-09T10:08:30;95894.84;;;32.39;28.27
30682;BME280;17439;48.092;11.842;2023-07-09T10:15:01;95904.09;;;32.52;28.54
30682;BME280;17439;48.092;11.842;2023-07-09T10:20:36;95894.72;;;32.72;25.96
30682;BME280;17439;48.092;11.842;2023-07-09T10:23:27;95892.59;;;32.76;27.24
30682;BME280;17439;48.092;11.842;2023-07-09T10:26:11;95892.81;;;32.82;27.04
30682;BME280;17439;48.092;11.842;2023-07-09T10:31:31;95893.06;;;33.00;26.30
30682;BME280;17439;48.092;11.842;2023-07-09T10:39:50;95888.81;;;33.21;25.70
30682;BME280;17439;48.092;11.842;2023-07-09T10:42:24;95890.16;;;33.30;26.03
30682;BME280;17439;48.092;11.842;2023-07-09T10:45:01;95892.63;;;33.40;25.65
30682;BME280;17439;48.092;11.842;2023-07-09T10:47:33;95896.88;;;33.45;26.07
30682;BME280;17439;48.092;11.842;2023-07-09T10:50:03;95884.44;;;33.46;25.77
30682;BME280;17439;48.092;11.842;2023-07-09T10:52:37;95895.22;;;33.48;25.13
30682;BME280;17439;48.092;11.842;2023-07-09T10:57:58;95880.13;;;33.54;25.57
30682;BME280;17439;48.092;11.842;2023-07-09T11:00:34;95888.00;;;33.59;25.43
30682;BME280;17439;48.092;11.842;2023-07-09T11:03:13;95878.66;;;33.62;25.79
30682;BME280;17439;48.092;11.842;2023-07-09T11:05:42;95887.53;;;33.74;26.00
30682;BME280;17439;48.092;11.842;2023-07-09T11:08:21;95882.13;;;33.79;25.48
30682;BME280;17439;48.092;11.842;2023-07-09T11:10:58;95882.09;;;33.92;25.55
30682;BME280;17439;48.092;11.842;2023-07-09T11:13:43;95877.19;;;34.06;26.02
30682;BME280;17439;48.092;11.842;2023-07-09T11:16:32;95880.09;;;34.15;25.70
30682;BME280;17439;48.092;11.842;2023-07-09T11:19:02;95871.84;;;34.21;24.81
30682;BME280;17439;48.092;11.842;2023-07-09T11:21:29;95865.84;;;34.31;25.40
30682;BME280;17439;48.092;11.842;2023-07-09T11:23:58;95871.44;;;34.44;24.83
30682;BME280;17439;48.092;11.842;2023-07-09T11:26:28;95871.00;;;34.55;24.96
30682;BME280;17439;48.092;11.842;2023-07-09T11:31:38;95869.94;;;34.84;23.48
30682;BME280;17439;48.092;11.842;2023-07-09T11:36:33;95864.50;;;34.90;23.65
30682;BME280;17439;48.092;11.842;2023-07-09T11:39:02;95869.06;;;34.96;23.78
30682;BME280;17439;48.092;11.842;2023-07-09T11:41:41;95859.53;;;35.03;23.73
30682;BME280;17439;48.092;11.842;2023-07-09T11:46:53;95860.34;;;35.44;21.95
30682;BME280;17439;48.092;11.842;2023-07-09T11:49:23;95858.28;;;35.35;22.61
30682;BME280;17439;48.092;11.842;2023-07-09T11:51:55;95853.09;;;35.24;22.72
30682;BME280;17439;48.092;11.842;2023-07-09T11:54:25;95856.22;;;35.27;22.69
30682;BME280;17439;48.092;11.842;2023-07-09T11:56:57;95847.66;;;35.30;22.68
30682;BME280;17439;48.092;11.842;2023-07-09T11:59:24;95844.81;;;35.30;22.47
30682;BME280;17439;48.092;11.842;2023-07-09T12:01:52;95843.03;;;35.23;22.81
30682;BME280;17439;48.092;11.842;2023-07-09T12:04:25;95835.50;;;35.11;23.18
30682;BME280;17439;48.092;11.842;2023-07-09T12:06:57;95830.34;;;35.19;22.51
30682;BME280;17439;48.092;11.842;2023-07-09T12:09:32;95830.16;;;35.04;22.92
30682;BME280;17439;48.092;11.842;2023-07-09T12:11:59;95831.03;;;34.92;22.94
30682;BME280;17439;48.092;11.842;2023-07-09T12:14:25;95832.41;;;34.78;23.35
30682;BME280;17439;48.092;11.842;2023-07-09T12:16:53;95830.81;;;34.77;22.47
30682;BME280;17439;48.092;11.842;2023-07-09T12:19:21;95826.63;;;34.59;23.71
30682;BME280;17439;48.092;11.842;2023-07-09T12:21:53;95823.06;;;34.59;23.28
30682;BME280;17439;48.092;11.842;2023-07-09T12:24:23;95816.97;;;34.60;23.46
30682;BME280;17439;48.092;11.842;2023-07-09T12:26:58;95811.66;;;34.62;23.48
30682;BME280;17439;48.092;11.842;2023-07-09T12:29:34;95811.03;;;34.67;23.64
30682;BME280;17439;48.092;11.842;2023-07-09T12:32:16;95818.63;;;34.80;23.44
30682;BME280;17439;48.092;11.842;2023-07-09T12:34:48;95815.56;;;34.96;21.87
30682;BME280;17439;48.092;11.842;2023-07-09T12:37:16;95807.47;;;35.08;21.66
30682;BME280;17439;48.092;11.842;2023-07-09T12:39:43;95811.59;;;35.16;21.97
30682;BME280;17439;48.092;11.842;2023-07-09T12:42:27;95808.75;;;35.16;21.56
30682;BME280;17439;48.092;11.842;2023-07-09T12:44:56;95801.72;;;35.11;22.05
30682;BME280;17439;48.092;11.842;2023-07-09T12:47:24;95792.44;;;35.11;22.22
30682;BME280;17439;48.092;11.842;2023-07-09T12:50:00;95789.50;;;35.23;22.70
30682;BME280;17439;48.092;11.842;2023-07-09T12:52:27;95790.22;;;35.37;22.58
30682;BME280;17439;48.092;11.842;2023-07-09T12:57:25;95789.13;;;35.62;21.93
30682;BME280;17439;48.092;11.842;2023-07-09T12:59:54;95784.16;;;35.75;22.03
30682;BME280;17439;48.092;11.842;2023-07-09T13:02:23;95781.34;;;35.85;22.11
30682;BME280;17439;48.092;11.842;2023-07-09T13:04:59;95786.16;;;35.93;21.60
30682;BME280;17439;48.092;11.842;2023-07-09T13:07:31;95781.63;;;35.96;21.58
30682;BME280;17439;48.092;11.842;2023-07-09T13:10:07;95781.28;;;36.12;21.15
30682;BME280;17439;48.092;11.842;2023-07-09T13:12:41;95781.28;;;36.12;21.46
30682;BME280;17439;48.092;11.842;2023-07-09T13:15:39;95767.03;;;36.16;21.27
30682;BME280;17439;48.092;11.842;2023-07-09T13:18:08;95769.38;;;36.18;21.44
30682;BME280;17439;48.092;11.842;2023-07-09T13:20:41;95760.78;;;36.30;21.66
30682;BME280;17439;48.092;11.842;2023-07-09T13:23:18;95761.81;;;36.42;21.28
30682;BME280;17439;48.092;11.842;2023-07-09T13:25:45;95759.09;;;36.57;21.11
30682;BME280;17439;48.092;11.842;2023-07-09T13:28:21;95759.19;;;36.81;19.61
30682;BME280;17439;48.092;11.842;2023-07-09T13:30:50;95764.69;;;37.09;19.11
30682;BME280;17439;48.092;11.842;2023-07-09T13:33:18;95764.06;;;37.05;19.21
30682;BME280;17439;48.092;11.842;2023-07-09T13:35:46;95761.00;;;36.94;19.65
30682;BME280;17439;48.092;11.842;2023-07-09T13:38:17;95766.38;;;36.82;19.61
30682;BME280;17439;48.092;11.842;2023-07-09T13:40:47;95756.84;;;36.71;19.62
30682;BME280;17439;48.092;11.842;2023-07-09T13:43:18;95764.13;;;36.62;20.26
30682;BME280;17439;48.092;11.842;2023-07-09T13:45:45;95763.94;;;36.66;19.33
30682;BME280;17439;48.092;11.842;2023-07-09T13:48:17;95768.97;;;36.62;19.98